Portada
METAR-TAF:

METAR-TAF

Aeroports :

Aeroport de Newquay

Newquay Cornwall, Anglaterra

latitud: 50-26N, longitud: 005-00W, altitud: 119 m

Observació

L'informe es va fer fa 32 minuts, a les 08:50 UTC
Vent 11 kt del Sud-Oest
Temperatura 17°C
Humitat 82%
Pressió 1026 hPa
Visibilitat 10 km o més
Cel ennuvolat a una alçada de 1800 ft

METAR: EGHQ 220850Z 23011KT 9999 BKN018 17/14 Q1026

Hora: 10:22 (09:22 UTC)

Pronòstic

L'informe es va fer fa 1 hora i 22 minuts, a les 08:00 UTC
Pronòstic vàlid del 22 a les 09 UTC al 22 a les 18 UTC
Vent 12 kt del Sud-Oest
Visibilitat 10 km o més
Escasses núvols a una alçada de 1000 ft
Núvols disperses a una alçada de 4000 ft
Probabilitat 30% :
Temporalment
l' 22 a les 09 UTC al 22 a les 16 UTC
Cel ennuvolat a una alçada de 1000 ft
Probabilitat 30% :
Temporalment
l' 22 a les 16 UTC al 22 a les 18 UTC
Cel ennuvolat a una alçada de 800 ft

TAF: EGHQ 220800Z 2209/2218 23012KT 9999 FEW010 SCT040 PROB30 TEMPO 2209/2216 BKN010 PROB30 TEMPO 2216/2218 BKN008

Observacions i pronòstics meteorològics de més de 4000 aeroports (METAR i TAF).

Les estacions disponibles són els punts grocs i vermells al mapa.

Posi el ratolí al punt desitjat per veure el nom de l'estació.

Feu clic per veure les observacions i els pronòstics meteorològics.

Per canviar el mapa: feu clic els botons verds amb una creu de color negre per apropar; al botó verd amb un guió per allunyar la imatge; o en les fletxes verdes per a mapes adjacents.


METAR-TAF: